• Join FlightAware (Why Join?)
  • Login
  • US Flag 
02:54AM EST


 

Airport Tracker/Info


-or-


 

Live Flight TrackerFlight Track Log ✈ FLG3776 ✈ 17-Apr-2013 ✈ KMSP - KAZO

Flight Track Log - Related Links

Times and Time Zones

All times are in EDT time to prevent confusion due to time zone crossing. See the FLG3776 flight status page for this flight to view local times or setup timezone preferences in your user account.

Time Position Orientation Groundspeed Altitude Reporting Facility
EDT Latitude Longitude Course Direction KTS MPH feet Rate Location/Type
09:26PM 44.8764 -93.1853 115° Southeast 152 175 2,000  Level FAA TRACON SMA TRACON (SMA)
09:26PM 44.8683 -93.1711 129° Southeast 151 174 2,800 2,700 Climbing FAA TRACON SMA TRACON (SMA)
09:27PM 44.8564 -93.1508 130° Southeast 172 198 3,800 3,060 Climbing FAA TRACON SMA TRACON (SMA)
09:27PM 44.8469 -93.1331 127° Southeast 181 208 4,800 2,100 Climbing FAA TRACON SMA TRACON (SMA)
09:27PM 44.8378 -93.1131 123° Southeast 193 222 5,200 1,620 Climbing FAA TRACON SMA TRACON (SMA)
09:28PM 44.8256 -93.0828 120° Southeast 226 260 5,900 1,920 Climbing FAA TRACON SMA TRACON (SMA)
09:28PM 44.8169 -93.0556 114° Southeast 245 282 6,500 1,500 Climbing FAA TRACON SMA TRACON (SMA)
09:28PM 44.8106 -93.0244 106° East 263 303 6,900 720 Climbing FAA TRACON SMA TRACON (SMA)
09:29PM 44.7457 -92.7682 110° East  Level Estimated
09:29PM 44.8031 -92.9858 105° East 267 307 7,000  Level FAA TRACON SMA TRACON (SMA)
09:29PM 44.7969 -92.9553 106° East 263 303 7,600 2,100 Climbing FAA TRACON SMA TRACON (SMA)
09:29PM 44.7908 -92.9239 105° East 268 308 8,400 2,820 Climbing FAA TRACON SMA TRACON (SMA)
09:30PM 44.6999 -92.6175 118° Southeast  Level Estimated
09:30PM 44.7831 -92.8844 106° East 273 314 9,500  Level FAA TRACON SMA TRACON (SMA)
09:30PM 44.7764 -92.8519 106° East 277 319 10,200 1,620 Climbing FAA TRACON SMA TRACON (SMA)
09:30PM 44.7697 -92.8181 105° East 287 330 10,600 1,320 Climbing FAA TRACON SMA TRACON (SMA)
09:31PM 44.6539 -92.4670 115° Southeast  Level Estimated
09:31PM 44.7614 -92.7733 105° East 307 353 11,100  Level FAA TRACON SMA TRACON (SMA)
09:31PM 44.7533 -92.7358 107° East 320 368 11,400 1,020 Climbing FAA TRACON SMA TRACON (SMA)
09:31PM 44.7422 -92.6989 113° Southeast 332 382 11,800 1,260 Climbing FAA TRACON SMA TRACON (SMA)
09:32PM 44.7308 -92.6603 113° Southeast 342 394 12,200 1,920 Climbing FAA TRACON SMA TRACON (SMA)
09:32PM 44.7167 -92.6125 113° Southeast 347 399 13,100 2,220 Climbing FAA TRACON SMA TRACON (SMA)
09:32PM 44.7050 -92.5739 113° Southeast 347 399 13,700 1,620 Climbing FAA TRACON SMA TRACON (SMA)
09:33PM 44.6903 -92.5256 113° Southeast 352 405 14,200 1,320 Climbing FAA TRACON SMA TRACON (SMA)
09:33PM 44.6781 -92.4856 113° Southeast 358 412 14,600 1,320 Climbing FAA TRACON SMA TRACON (SMA)
09:33PM 44.6667 -92.4453 112° Southeast 361 415 15,100 1,500 Climbing FAA TRACON SMA TRACON (SMA)
09:34PM 44.6519 -92.3936 112° Southeast 369 425 15,600 1,500 Climbing FAA TRACON SMA TRACON (SMA)
09:34PM 44.6389 -92.3528 114° Southeast 373 429 16,100 1,320 Climbing FAA TRACON SMA TRACON (SMA)
09:34PM 44.6269 -92.3106 112° Southeast 376 433 16,500 900 Climbing FAA TRACON SMA TRACON (SMA)
09:35PM 44.6117 -92.2572 112° Southeast 384 442 16,700 1,320 Climbing FAA TRACON SMA TRACON (SMA)
09:35PM 44.5981 -92.2139 114° Southeast 393 452 17,400 1,920 Climbing FAA TRACON SMA TRACON (SMA)
09:35PM 44.5844 -92.1719 114° Southeast 387 445 18,000 1,260 Climbing FAA TRACON SMA TRACON (SMA)
09:36PM 44.5686 -92.1172 112° Southeast 392 451 18,300 1,020 Climbing FAA TRACON SMA TRACON (SMA)
09:36PM 44.5558 -92.0728 112° Southeast 398 458 18,700 1,200 Climbing FAA TRACON SMA TRACON (SMA)
09:36PM 44.5428 -92.0286 113° Southeast 401 461 19,100 1,320 Climbing FAA TRACON SMA TRACON (SMA)
09:37PM 44.5253 -91.9733 114° Southeast 403 464 19,600 840 Climbing FAA TRACON SMA TRACON (SMA)
09:37PM 44.5153 -91.9392 112° Southeast 407 468 19,700 600 Climbing FAA TRACON SMA TRACON (SMA)
09:38PM 44.4675 -91.8228 120° Southeast 411 473 20,400 960 Climbing Minneapolis Center
09:39PM 44.4097 -91.6406 114° Southeast 424 488 21,600 1,200 Climbing Minneapolis Center
09:40PM 44.3597 -91.4878 115° Southeast 430 495 22,900 660 Climbing Minneapolis Center
09:41PM 44.3119 -91.3369 114° Southeast 429 494 23,000  Climbing Minneapolis Center
09:42PM 44.2681 -91.1869 112° Southeast 426 490 23,000  Level Minneapolis Center
09:43PM 44.2197 -91.0403 115° Southeast 423 487 23,000  Level Minneapolis Center
09:44PM 44.1725 -90.8958 114° Southeast 419 482 23,000  Level Minneapolis Center
09:45PM 44.1225 -90.7411 114° Southeast 431 496 23,000  Level Minneapolis Center
09:46PM 44.0600 -90.5497 114° Southeast 450 518 23,000  Level Minneapolis Center
09:47PM 44.0083 -90.4025 116° Southeast 455 524 23,000  Level Minneapolis Center
09:48PM 43.9572 -90.2453 114° Southeast 449 517 23,000  Level Minneapolis Center
09:49PM 43.8972 -90.0636 115° Southeast 445 512 23,000  Level Minneapolis Center
09:50PM 43.8447 -89.9078 115° Southeast 446 513 23,000  Level Minneapolis Center
09:51PM 43.7925 -89.7525 115° Southeast 444 511 23,000  Level Minneapolis Center
09:52PM 43.7392 -89.5997 116° Southeast 443 510 23,000  Level Minneapolis Center
09:53PM 43.6869 -89.4458 115° Southeast 442 509 23,000  Level Minneapolis Center
09:54PM 43.6344 -89.2939 115° Southeast 440 506 23,000  Level Minneapolis Center
09:55PM 43.5814 -89.1431 116° Southeast 438 504 23,000  Level Chicago Center
09:56PM 43.5289 -88.9925 116° Southeast 436 502 23,000  Level Chicago Center
09:57PM 43.4764 -88.8422 116° Southeast 436 502 23,000  Level Chicago Center
09:58PM 43.4231 -88.6911 116° Southeast 440 506 23,000  Level Chicago Center
09:59PM 43.3614 -88.5189 116° Southeast 442 509 23,000  Level Chicago Center
10:00PM 43.3081 -88.3700 116° Southeast 444 511 23,000  Level Chicago Center
10:01PM 43.2539 -88.2189 116° Southeast 444 511 23,000  Level Chicago Center
10:03PM 43.2014 -88.0692 116° Southeast 439 505 23,000  Level Chicago Center
10:04PM 43.1467 -87.9197 117° Southeast 438 504 23,000  Level Chicago Center
10:05PM 43.0928 -87.7694 116° Southeast 440 506 23,000  Level Chicago Center
10:06PM 43.0383 -87.6194 116° Southeast 440 506 23,000 -120 Level Chicago Center
10:07PM 42.9833 -87.4703 117° Southeast 441 507 22,800 -1,020 Descending Chicago Center
10:08PM 42.9192 -87.3017 117° Southeast 437 503 21,000 -1,680 Descending Chicago Center
10:09PM 42.8681 -87.1611 116° Southeast 420 483 19,500 -1,800 Descending Chicago Center
10:10PM 42.8167 -87.0269 118° Southeast 405 466 17,400 -1,260 Descending Chicago Center
10:11PM 42.7675 -86.8956 117° Southeast 395 455 17,000 -240 Descending Chicago Center
10:12PM 42.7175 -86.7647 117° Southeast 392 451 17,000  Level Chicago Center
10:13PM 42.6667 -86.6308 117° Southeast 400 460 17,100 -480 Climbing Chicago Center
10:14PM 42.6158 -86.4989 118° Southeast 399 459 16,100 -1,320 Descending Chicago Center
10:15PM 42.5669 -86.3708 117° Southeast 388 447 14,500 -1,680 Descending Chicago Center
10:16PM 42.5181 -86.2447 118° Southeast 383 441 12,800 -1,680 Descending Chicago Center
10:17PM 42.4603 -86.0939 117° Southeast 380 437 11,100 -840 Descending Chicago Center
10:18PM 42.4111 -85.9747 119° Southeast 368 423 11,100 -600 Level Chicago Center
10:19PM 42.3658 -85.8636 119° Southeast 348 400 10,000 -1,680 Descending Chicago Center
10:20PM 42.3611 -85.7592 93° East 311 358 7,800 -1,920 Descending Chicago Center
10:21PM 42.3703 -85.6569 83° East 285 328 6,200 -1,620 Descending Chicago Center